createdAt,value
2022-09-14T00:01:40.665Z,13.80
2022-09-14T00:04:11.997Z,14.02
2022-09-14T00:06:40.833Z,12.77
2022-09-14T00:09:11.496Z,13.63
2022-09-14T00:11:41.351Z,13.57
2022-09-14T00:14:09.857Z,13.05
2022-09-14T00:16:41.465Z,13.38
2022-09-14T00:19:17.711Z,13.63
2022-09-14T00:21:46.013Z,13.13
2022-09-14T00:24:14.226Z,12.55
2022-09-14T00:26:42.604Z,12.82
2022-09-14T00:29:12.523Z,12.00
2022-09-14T00:31:42.655Z,11.88
2022-09-14T00:34:15.024Z,11.70
2022-09-14T00:36:46.359Z,10.85
2022-09-14T00:39:15.751Z,11.18
2022-09-14T00:41:48.067Z,11.27
2022-09-14T00:44:49.273Z,10.70
2022-09-14T00:47:19.319Z,9.82
2022-09-14T00:49:47.668Z,10.32
2022-09-14T00:52:19.459Z,10.38
2022-09-14T00:54:49.692Z,10.65
2022-09-14T00:57:18.396Z,10.05
2022-09-14T00:59:48.776Z,9.98
2022-09-14T01:02:19.652Z,9.88
2022-09-14T01:04:48.486Z,9.43
2022-09-14T01:07:26.792Z,8.82
2022-09-14T01:10:04.356Z,9.02
2022-09-14T01:12:41.783Z,9.48
2022-09-14T01:15:18.201Z,9.27
2022-09-14T01:17:55.123Z,7.95
2022-09-14T01:20:30.245Z,8.80
2022-09-14T01:23:07.022Z,8.45
2022-09-14T01:26:06.127Z,8.63
2022-09-14T01:28:40.563Z,7.95
2022-09-14T01:31:14.109Z,8.00
2022-09-14T01:36:16.212Z,7.00
2022-09-14T01:38:46.860Z,7.40
2022-09-14T01:41:18.661Z,7.13
2022-09-14T01:43:54.142Z,7.07
2022-09-14T01:46:26.785Z,6.88
2022-09-14T01:49:02.427Z,6.72
2022-09-14T01:51:37.582Z,6.60
2022-09-14T01:54:12.750Z,6.63
2022-09-14T01:56:49.797Z,6.40
2022-09-14T01:59:22.975Z,7.18
2022-09-14T02:01:55.250Z,7.25
2022-09-14T02:04:30.988Z,6.20
2022-09-14T02:06:59.422Z,7.00
2022-09-14T02:09:28.109Z,7.38
2022-09-14T02:12:01.018Z,6.50
2022-09-14T02:14:31.073Z,6.35
2022-09-14T02:16:59.518Z,6.68
2022-09-14T02:19:31.533Z,6.35
2022-09-14T02:22:00.392Z,6.90
2022-09-14T02:24:29.427Z,6.70
2022-09-14T02:26:59.657Z,6.55
2022-09-14T02:29:28.194Z,6.07
2022-09-14T02:32:17.036Z,6.40
2022-09-14T02:34:55.639Z,6.45
2022-09-14T02:37:36.099Z,6.20
2022-09-14T02:40:11.842Z,6.97
2022-09-14T02:42:48.329Z,6.75
2022-09-14T02:45:25.400Z,6.63
2022-09-14T02:48:03.572Z,6.40
2022-09-14T02:50:38.072Z,6.40
2022-09-14T02:53:12.559Z,6.22
2022-09-14T02:55:45.453Z,6.18
2022-09-14T02:58:15.857Z,6.80
2022-09-14T03:00:47.036Z,6.70
2022-09-14T03:03:18.585Z,7.07
2022-09-14T03:05:47.638Z,6.35
2022-09-14T03:08:15.959Z,6.80
2022-09-14T03:10:45.433Z,6.63
2022-09-14T03:13:13.877Z,7.30
2022-09-14T03:15:42.107Z,7.07
2022-09-14T03:18:14.236Z,7.07
2022-09-14T03:20:44.646Z,7.57
2022-09-14T03:23:13.909Z,7.18
2022-09-14T03:25:44.214Z,7.03
2022-09-14T03:28:13.876Z,7.65
2022-09-14T03:30:42.358Z,7.18
2022-09-14T03:33:10.677Z,7.60
2022-09-14T03:35:38.785Z,8.13
2022-09-14T03:38:08.795Z,7.75
2022-09-14T03:40:37.140Z,7.82
2022-09-14T03:43:05.254Z,8.07
2022-09-14T03:45:33.586Z,8.70
2022-09-14T03:48:01.843Z,9.10
2022-09-14T03:50:29.879Z,9.57
2022-09-14T03:52:58.517Z,8.90
2022-09-14T03:55:28.338Z,9.40
2022-09-14T03:57:56.567Z,10.68
2022-09-14T04:00:24.983Z,10.20
2022-09-14T04:02:53.726Z,10.35
2022-09-14T04:05:22.162Z,10.70
2022-09-14T04:07:50.649Z,10.57
2022-09-14T04:10:19.068Z,11.93
2022-09-14T04:12:48.567Z,11.88
2022-09-14T04:15:16.991Z,12.77
2022-09-14T04:17:45.365Z,12.63
2022-09-14T04:20:13.456Z,13.88
2022-09-14T04:22:41.833Z,14.02
2022-09-14T04:25:10.405Z,14.27
2022-09-14T04:27:38.645Z,14.77
2022-09-14T04:30:09.465Z,14.68
2022-09-14T04:32:37.691Z,16.00
2022-09-14T04:35:06.279Z,16.77
2022-09-14T04:37:34.928Z,16.75
2022-09-14T04:40:03.920Z,16.73
2022-09-14T04:42:32.180Z,17.67
2022-09-14T04:45:00.481Z,17.83
2022-09-14T04:47:31.011Z,18.55
2022-09-14T04:49:59.148Z,19.88
2022-09-14T04:52:27.313Z,19.48
2022-09-14T04:54:55.671Z,19.00
2022-09-14T04:57:23.923Z,18.85
2022-09-14T04:59:52.185Z,19.45
2022-09-14T05:02:20.601Z,19.73
2022-09-14T05:04:50.367Z,18.77
2022-09-14T05:07:18.647Z,20.25
2022-09-14T05:09:46.867Z,20.17
2022-09-14T05:12:15.017Z,19.85
2022-09-14T05:14:43.266Z,20.77
2022-09-14T05:17:11.562Z,20.65
2022-09-14T05:19:39.699Z,21.80
2022-09-14T05:22:09.453Z,21.52
2022-09-14T05:24:37.653Z,21.63
2022-09-14T05:27:05.805Z,22.17
2022-09-14T05:29:34.083Z,21.80
2022-09-14T05:32:02.376Z,22.38
2022-09-14T05:34:30.511Z,22.98
2022-09-14T05:36:58.971Z,23.50
2022-09-14T05:39:28.586Z,24.15
2022-09-14T05:41:56.700Z,25.35
2022-09-14T05:44:24.947Z,24.63
2022-09-14T05:46:53.276Z,25.38
2022-09-14T05:49:21.580Z,25.88
2022-09-14T05:51:49.884Z,25.55
2022-09-14T05:54:18.366Z,25.63
2022-09-14T05:56:48.299Z,25.88
2022-09-14T05:59:16.793Z,27.20
2022-09-14T06:01:45.161Z,26.48
2022-09-14T06:04:13.535Z,25.95
2022-09-14T06:06:46.913Z,27.35
2022-09-14T06:09:24.495Z,27.98
2022-09-14T06:11:54.625Z,27.00
2022-09-14T06:14:23.042Z,26.80
2022-09-14T06:16:51.560Z,26.33
2022-09-14T06:19:20.049Z,27.50
2022-09-14T06:21:48.164Z,27.27
2022-09-14T06:24:16.657Z,27.42
2022-09-14T06:26:45.167Z,27.83
2022-09-14T06:29:14.891Z,27.83
2022-09-14T06:31:43.233Z,26.35
2022-09-14T06:34:11.741Z,27.83
2022-09-14T06:36:40.059Z,26.77
2022-09-14T06:39:08.434Z,25.52
2022-09-14T06:41:36.699Z,24.80
2022-09-14T06:44:05.007Z,25.80
2022-09-14T06:46:35.450Z,26.02
2022-09-14T06:49:06.989Z,25.27
2022-09-14T06:51:37.320Z,25.83
2022-09-14T06:54:07.008Z,25.73
2022-09-14T06:56:37.494Z,24.13
2022-09-14T06:59:06.321Z,24.58
2022-09-14T07:01:36.464Z,24.50
2022-09-14T07:04:06.024Z,23.92
2022-09-14T07:06:40.002Z,24.45
2022-09-14T07:09:08.671Z,24.02
2022-09-14T07:11:37.519Z,23.20
2022-09-14T07:14:06.123Z,22.50
2022-09-14T07:16:37.230Z,22.17
2022-09-14T07:19:07.980Z,21.90
2022-09-14T07:21:36.427Z,22.05
2022-09-14T07:24:04.817Z,20.42
2022-09-14T07:26:39.579Z,21.25
2022-09-14T07:29:09.743Z,20.83
2022-09-14T07:31:42.214Z,20.38
2022-09-14T07:34:10.728Z,19.02
2022-09-14T07:36:39.414Z,17.23
2022-09-14T07:39:12.371Z,17.75
2022-09-14T07:41:41.103Z,18.52
2022-09-14T07:44:10.635Z,18.73
2022-09-14T07:46:42.321Z,18.98
2022-09-14T07:49:11.903Z,18.88
2022-09-14T07:51:40.830Z,18.70
2022-09-14T07:54:12.555Z,18.73
2022-09-14T07:56:40.691Z,16.00
2022-09-14T07:59:34.568Z,17.10
2022-09-14T08:02:01.839Z,19.40
2022-09-14T08:04:30.093Z,18.42
2022-09-14T08:06:58.440Z,17.60
2022-09-14T08:09:27.010Z,16.92
2022-09-14T08:11:55.208Z,16.85
2022-09-14T08:14:23.924Z,18.13
2022-09-14T08:16:52.190Z,18.23
2022-09-14T08:19:21.923Z,16.92
2022-09-14T08:21:51.205Z,18.08
2022-09-14T08:24:21.601Z,18.10
2022-09-14T08:26:50.263Z,16.80
2022-09-14T08:29:20.189Z,17.15
2022-09-14T08:31:51.748Z,16.30
2022-09-14T08:34:22.179Z,16.17
2022-09-14T08:36:50.600Z,15.68
2022-09-14T08:39:19.611Z,16.13
2022-09-14T08:41:56.096Z,16.40
2022-09-14T08:44:28.265Z,17.65
2022-09-14T08:47:01.895Z,17.02
2022-09-14T08:52:26.551Z,18.25
2022-09-14T08:54:57.920Z,19.02
2022-09-14T08:57:32.004Z,18.98
2022-09-14T09:00:09.073Z,20.75
2022-09-14T09:03:01.712Z,18.73
2022-09-14T09:05:41.450Z,20.27
2022-09-14T09:08:19.530Z,20.23
2022-09-14T09:10:49.028Z,21.73
2022-09-14T09:13:20.762Z,20.88
2022-09-14T09:15:50.993Z,20.85
2022-09-14T09:18:23.880Z,19.95
2022-09-14T09:20:56.120Z,21.00
2022-09-14T09:23:28.618Z,20.73
2022-09-14T09:26:01.361Z,19.63
2022-09-14T09:28:30.935Z,19.67
2022-09-14T09:31:05.119Z,18.73
2022-09-14T09:33:34.313Z,19.70
2022-09-14T09:36:02.960Z,19.70
2022-09-14T09:38:32.833Z,19.25
2022-09-14T09:41:07.598Z,19.42
2022-09-14T09:43:49.217Z,18.75
2022-09-14T09:46:19.288Z,18.88
2022-09-14T09:48:48.477Z,19.77
2022-09-14T09:51:26.531Z,19.55
2022-09-14T09:53:59.745Z,19.63
2022-09-14T09:56:30.157Z,19.98
2022-09-14T09:58:58.455Z,19.52
2022-09-14T10:01:30.367Z,19.38
2022-09-14T10:04:05.833Z,19.85
2022-09-14T10:06:42.083Z,19.02
2022-09-14T10:09:16.958Z,19.40
2022-09-14T10:11:47.121Z,19.73
2022-09-14T10:14:25.322Z,19.38
2022-09-14T10:16:54.069Z,19.75
2022-09-14T10:19:26.289Z,19.73
2022-09-14T10:22:07.023Z,19.98
2022-09-14T10:24:38.591Z,19.40
2022-09-14T10:27:37.801Z,19.60
2022-09-14T10:30:08.310Z,19.33
2022-09-14T10:32:38.485Z,20.52
2022-09-14T10:35:13.998Z,20.45
2022-09-14T10:37:51.216Z,20.33
2022-09-14T10:40:29.061Z,20.45
2022-09-14T10:43:09.723Z,19.73
2022-09-14T10:45:42.108Z,19.92
2022-09-14T10:48:36.999Z,19.73
2022-09-14T10:51:25.605Z,19.52
2022-09-14T10:54:09.690Z,19.63
2022-09-14T10:56:54.961Z,20.15
2022-09-14T10:59:32.972Z,19.90
2022-09-14T11:02:31.599Z,19.52
2022-09-14T11:05:14.379Z,20.48
2022-09-14T11:07:52.795Z,19.67
2022-09-14T11:10:27.856Z,19.73
2022-09-14T11:13:17.957Z,19.83
2022-09-14T11:15:54.784Z,19.85
2022-09-14T11:18:28.941Z,20.15
2022-09-14T11:21:10.427Z,20.63
2022-09-14T11:23:47.423Z,20.63
2022-09-14T11:26:20.646Z,20.08
2022-09-14T11:28:53.768Z,21.45
2022-09-14T11:31:26.354Z,21.80
2022-09-14T11:33:59.998Z,22.45
2022-09-14T11:39:06.834Z,20.92
2022-09-14T11:41:42.959Z,21.50
2022-09-14T11:44:17.519Z,21.45
2022-09-14T11:46:49.896Z,21.55
2022-09-14T11:49:22.645Z,19.70
2022-09-14T11:51:56.744Z,20.27
2022-09-14T11:54:25.611Z,21.50
2022-09-14T11:56:57.677Z,19.60
2022-09-14T11:59:51.495Z,21.50
2022-09-14T12:03:00.887Z,22.95
2022-09-14T12:05:37.031Z,21.35
2022-09-14T12:08:29.236Z,22.95
2022-09-14T12:11:02.160Z,22.42
2022-09-14T12:13:30.528Z,22.45
2022-09-14T12:16:07.774Z,23.38
2022-09-14T12:18:38.360Z,22.92
2022-09-14T12:21:09.317Z,25.92
2022-09-14T12:23:46.190Z,25.80
2022-09-14T12:26:31.492Z,23.90
2022-09-14T12:29:05.916Z,23.15
2022-09-14T12:32:03.240Z,24.05
2022-09-14T12:34:33.502Z,24.08
2022-09-14T12:37:30.808Z,24.33
2022-09-14T12:40:36.899Z,23.95
2022-09-14T12:43:44.798Z,24.92
2022-09-14T12:46:33.461Z,24.88
2022-09-14T12:49:05.561Z,25.83
2022-09-14T12:51:43.374Z,25.92
2022-09-14T12:54:23.905Z,26.13
2022-09-14T12:57:09.496Z,24.73
2022-09-14T12:59:45.800Z,24.58
2022-09-14T13:02:54.954Z,23.17
2022-09-14T13:05:28.975Z,24.05
2022-09-14T13:07:58.146Z,24.15
2022-09-14T13:10:31.512Z,24.67
2022-09-14T13:13:02.236Z,25.20
2022-09-14T13:15:33.701Z,23.83
2022-09-14T13:18:04.416Z,23.80
2022-09-14T13:20:36.017Z,25.10
2022-09-14T13:23:04.890Z,25.63
2022-09-14T13:25:36.148Z,25.73
2022-09-14T13:28:07.629Z,27.40
2022-09-14T13:30:37.351Z,26.23
2022-09-14T13:33:05.954Z,28.67
2022-09-14T13:35:39.538Z,29.45
2022-09-14T13:40:37.575Z,27.30
2022-09-14T13:43:06.079Z,27.15
2022-09-14T13:45:35.170Z,26.17
2022-09-14T13:48:05.093Z,25.90
2022-09-14T13:50:34.715Z,26.35
2022-09-14T13:53:04.813Z,26.23
2022-09-14T13:55:45.173Z,25.55
2022-09-14T13:58:23.894Z,23.40
2022-09-14T14:00:58.478Z,24.52
2022-09-14T14:03:32.964Z,22.27
2022-09-14T14:06:04.705Z,22.15
2022-09-14T14:08:37.508Z,22.70
2022-09-14T14:11:09.290Z,22.80
2022-09-14T14:13:38.728Z,21.48
2022-09-14T14:16:19.024Z,21.83
2022-09-14T14:18:57.083Z,19.80
2022-09-14T14:21:31.736Z,19.33
2022-09-14T14:24:27.212Z,21.20
2022-09-14T14:26:57.441Z,21.80
2022-09-14T14:29:27.333Z,21.17
2022-09-14T14:31:57.006Z,20.50
2022-09-14T14:34:27.369Z,19.33
2022-09-14T14:36:55.940Z,20.05
2022-09-14T14:39:26.577Z,20.65
2022-09-14T14:41:56.114Z,19.83
2022-09-14T14:44:28.307Z,19.67
2022-09-14T14:46:57.308Z,24.45
2022-09-14T14:49:25.613Z,29.77
2022-09-14T14:51:54.250Z,32.50
2022-09-14T14:54:22.758Z,30.48
2022-09-14T14:56:52.998Z,31.00
2022-09-14T14:59:29.641Z,31.33
2022-09-14T15:01:58.594Z,28.65
2022-09-14T15:04:27.080Z,25.42
2022-09-14T15:06:58.014Z,23.65
2022-09-14T15:09:29.185Z,23.42
2022-09-14T15:11:58.773Z,21.33
2022-09-14T15:14:27.876Z,20.80
2022-09-14T15:17:00.291Z,19.75
2022-09-14T15:19:28.860Z,20.60
2022-09-14T15:22:01.092Z,17.75
2022-09-14T15:24:30.397Z,20.20
2022-09-14T15:27:00.394Z,22.95
2022-09-14T15:29:28.720Z,21.30
2022-09-14T15:31:57.240Z,25.15
2022-09-14T15:34:25.577Z,26.33
2022-09-14T15:36:54.937Z,28.50
2022-09-14T15:39:25.761Z,30.77
2022-09-14T15:41:54.428Z,31.48
2022-09-14T15:44:24.709Z,33.95
2022-09-14T15:46:53.280Z,37.60
2022-09-14T15:49:22.953Z,40.50
2022-09-14T15:51:53.132Z,39.40
2022-09-14T15:54:23.198Z,38.22
2022-09-14T15:56:53.005Z,40.42
2022-09-14T15:59:23.632Z,39.10
2022-09-14T16:01:52.126Z,40.22
2022-09-14T16:04:21.050Z,38.17
2022-09-14T16:06:49.532Z,40.95
2022-09-14T16:09:21.676Z,38.60
2022-09-14T16:11:50.302Z,40.17
2022-09-14T16:14:18.474Z,41.30
2022-09-14T16:16:48.203Z,39.53
2022-09-14T16:19:16.570Z,41.20
2022-09-14T16:21:44.803Z,40.78
2022-09-14T16:24:15.858Z,41.28
2022-09-14T16:26:47.594Z,42.40
2022-09-14T16:29:17.934Z,41.00
2022-09-14T16:31:49.352Z,39.85
2022-09-14T16:34:20.082Z,41.58
2022-09-14T16:36:49.278Z,42.20
2022-09-14T16:39:19.967Z,40.10
2022-09-14T16:41:48.509Z,37.72
2022-09-14T16:44:19.134Z,30.63
2022-09-14T16:46:49.629Z,29.75
2022-09-14T16:49:18.113Z,32.08
2022-09-14T16:51:46.432Z,31.85
2022-09-14T16:54:16.916Z,33.30
2022-09-14T16:56:46.416Z,33.05
2022-09-14T16:59:15.767Z,34.03
2022-09-14T17:01:50.853Z,34.50
2022-09-14T17:04:23.670Z,33.90
2022-09-14T17:06:53.362Z,34.28
2022-09-14T17:09:23.392Z,33.13
2022-09-14T17:11:52.140Z,33.15
2022-09-14T17:14:22.308Z,32.05
2022-09-14T17:16:50.922Z,32.80
2022-09-14T17:19:20.035Z,31.65
2022-09-14T17:21:50.304Z,31.40
2022-09-14T17:24:19.688Z,29.58
2022-09-14T17:26:48.249Z,31.05
2022-09-14T17:29:17.372Z,30.77
2022-09-14T17:31:46.558Z,30.23
2022-09-14T17:34:17.155Z,30.02
2022-09-14T17:36:45.747Z,29.85
2022-09-14T17:39:16.364Z,27.13
2022-09-14T17:41:44.732Z,29.10
2022-09-14T17:44:14.828Z,26.75
2022-09-14T17:46:52.536Z,26.20
2022-09-14T17:49:22.036Z,27.52
2022-09-14T17:51:50.868Z,27.55
2022-09-14T17:54:21.146Z,26.95
2022-09-14T17:56:49.511Z,26.52
2022-09-14T17:59:20.517Z,26.60
2022-09-14T18:01:49.351Z,27.05
2022-09-14T18:04:17.991Z,28.90
2022-09-14T18:06:47.869Z,27.23
2022-09-14T18:09:18.273Z,28.13
2022-09-14T18:11:49.083Z,28.33
2022-09-14T18:14:17.814Z,29.08
2022-09-14T18:16:46.248Z,26.80
2022-09-14T18:19:15.011Z,28.20
2022-09-14T18:21:44.457Z,28.58
2022-09-14T18:24:15.053Z,26.42
2022-09-14T18:26:43.670Z,26.73
2022-09-14T18:29:16.122Z,27.73
2022-09-14T18:31:45.049Z,27.63
2022-09-14T18:34:13.193Z,25.77
2022-09-14T18:36:41.422Z,28.33
2022-09-14T18:39:09.933Z,25.73
2022-09-14T18:41:38.102Z,27.20
2022-09-14T18:44:07.307Z,27.30
2022-09-14T18:46:38.184Z,28.45
2022-09-14T18:49:06.397Z,29.52
2022-09-14T18:51:34.701Z,27.98
2022-09-14T18:54:04.774Z,28.25
2022-09-14T18:56:34.524Z,30.77
2022-09-14T18:59:04.886Z,28.33
2022-09-14T19:01:35.053Z,31.83
2022-09-14T19:04:06.694Z,30.48
2022-09-14T19:06:36.530Z,30.25
2022-09-14T19:09:05.056Z,30.65
2022-09-14T19:11:35.519Z,31.15
2022-09-14T19:14:07.328Z,31.80
2022-09-14T19:16:35.637Z,31.52
2022-09-14T19:19:05.936Z,32.35
2022-09-14T19:21:34.628Z,32.15
2022-09-14T19:24:05.183Z,31.30
2022-09-14T19:26:38.198Z,30.20
2022-09-14T19:29:10.209Z,32.25
2022-09-14T19:31:39.223Z,35.92
2022-09-14T19:34:08.948Z,37.60
2022-09-14T19:36:37.321Z,38.72
2022-09-14T19:39:06.622Z,42.97
2022-09-14T19:41:35.694Z,43.85
2022-09-14T19:44:06.676Z,45.60
2022-09-14T19:46:36.449Z,47.65
2022-09-14T19:49:04.766Z,48.13
2022-09-14T19:51:35.025Z,48.50
2022-09-14T19:54:03.299Z,49.33
2022-09-14T19:56:33.214Z,48.22
2022-09-14T19:59:02.841Z,48.10
2022-09-14T20:01:33.068Z,47.15
2022-09-14T20:04:01.639Z,49.40
2022-09-14T20:06:31.884Z,48.83
2022-09-14T20:09:02.862Z,47.95
2022-09-14T20:11:32.729Z,47.45
2022-09-14T20:14:02.848Z,47.60
2022-09-14T20:16:33.447Z,45.58
2022-09-14T20:19:06.132Z,46.10
2022-09-14T20:21:36.140Z,45.33
2022-09-14T20:24:22.805Z,43.35
2022-09-14T20:26:52.794Z,42.00
2022-09-14T20:29:22.924Z,40.28
2022-09-14T20:31:51.722Z,39.38
2022-09-14T20:34:22.147Z,38.55
2022-09-14T20:36:50.915Z,39.28
2022-09-14T20:39:21.761Z,39.55
2022-09-14T20:41:50.674Z,38.72
2022-09-14T20:44:22.362Z,36.33
2022-09-14T20:46:51.658Z,35.67
2022-09-14T20:49:22.155Z,34.33
2022-09-14T20:51:52.773Z,35.35
2022-09-14T20:54:22.889Z,36.38
2022-09-14T20:56:51.081Z,35.92
2022-09-14T20:59:22.419Z,34.20
2022-09-14T21:01:52.729Z,35.10
2022-09-14T21:04:22.752Z,35.55
2022-09-14T21:06:53.383Z,34.25
2022-09-14T21:09:24.600Z,34.67
2022-09-14T21:11:53.888Z,35.10
2022-09-14T21:14:23.629Z,31.60
2022-09-14T21:16:55.418Z,33.70
2022-09-14T21:19:25.597Z,33.08
2022-09-14T21:21:54.061Z,30.25
2022-09-14T21:24:24.570Z,30.02
2022-09-14T21:26:53.024Z,31.33
2022-09-14T21:29:23.788Z,30.27
2022-09-14T21:31:52.811Z,30.55
2022-09-14T21:34:21.494Z,30.52
2022-09-14T21:36:51.909Z,29.65
2022-09-14T21:39:23.231Z,30.80
2022-09-14T21:41:58.292Z,29.88
2022-09-14T21:44:30.235Z,25.38
2022-09-14T21:46:58.424Z,26.02
2022-09-14T21:49:26.561Z,24.45
2022-09-14T21:51:55.433Z,24.63
2022-09-14T21:54:23.745Z,24.45
2022-09-14T21:56:54.146Z,25.10
2022-09-14T21:59:24.365Z,25.55
2022-09-14T22:01:52.969Z,27.23
2022-09-14T22:04:22.355Z,30.75
2022-09-14T22:06:53.433Z,29.05
2022-09-14T22:09:25.389Z,29.42
2022-09-14T22:11:55.886Z,30.33
2022-09-14T22:14:26.752Z,28.45
2022-09-14T22:16:55.471Z,30.27
2022-09-14T22:19:25.539Z,27.10
2022-09-14T22:21:53.839Z,31.38
2022-09-14T22:24:24.786Z,30.05
2022-09-14T22:26:56.156Z,30.17
2022-09-14T22:29:25.118Z,32.35
2022-09-14T22:31:53.475Z,30.83
2022-09-14T22:34:22.154Z,29.08
2022-09-14T22:36:50.550Z,28.50
2022-09-14T22:39:18.647Z,28.10
2022-09-14T22:41:46.917Z,28.70
2022-09-14T22:44:16.686Z,25.90
2022-09-14T22:46:44.977Z,26.38
2022-09-14T22:49:13.489Z,29.58
2022-09-14T22:51:41.729Z,27.17
2022-09-14T22:54:10.276Z,26.52
2022-09-14T22:56:42.326Z,25.67
2022-09-14T22:59:11.893Z,23.77
2022-09-14T23:01:42.915Z,23.02
2022-09-14T23:04:13.088Z,22.40
2022-09-14T23:06:43.859Z,23.20
2022-09-14T23:09:14.692Z,23.42
2022-09-14T23:11:44.651Z,23.63
2022-09-14T23:14:13.511Z,22.45
2022-09-14T23:16:45.110Z,22.35
2022-09-14T23:19:16.176Z,22.63
2022-09-14T23:21:44.526Z,20.80
2022-09-14T23:24:13.126Z,23.80
2022-09-14T23:26:41.402Z,21.55
2022-09-14T23:29:14.366Z,20.17
2022-09-14T23:31:44.182Z,23.83
2022-09-14T23:34:12.562Z,22.65
2022-09-14T23:36:41.222Z,24.05
2022-09-14T23:39:09.447Z,22.55
2022-09-14T23:41:37.979Z,21.83
2022-09-14T23:44:06.186Z,20.42
2022-09-14T23:46:34.591Z,21.75
2022-09-14T23:49:04.088Z,20.15
2022-09-14T23:51:32.509Z,20.75
2022-09-14T23:54:00.928Z,24.33
2022-09-14T23:56:29.088Z,25.63
2022-09-14T23:58:57.561Z,23.15
